Time;durP1;ratioP1;P1;durP2;ratioP2;P2;SDS_P1;SDS_P2;PMS_P1;PMS_P2;Temp;Humidity;BMP_temperature;BMP_pressure;BME280_temperature;BME280_humidity;BME280_pressure;Samples;Min_cycle;Max_cycle;Signal;HPM_P1;HPM_P2
2022/06/18 00:00:59;;;;;;;1.10;0.52;;;14.00;99.90;;;;;;5087696;28;20392;-84
2022/06/18 00:03:27;;;;;;;4.83;0.60;;;14.00;99.90;;;;;;5075822;28;20396;-86
2022/06/18 00:05:57;;;;;;;1.50;0.60;;;14.10;99.90;;;;;;5073241;28;20388;-84
2022/06/18 00:08:28;;;;;;;1.35;0.50;;;14.10;99.90;;;;;;5076196;28;20446;-85
2022/06/18 00:13:50;;;;;;;1.10;0.60;;;14.30;99.90;;;;;;5019253;28;20372;-87
2022/06/18 00:16:20;;;;;;;2.95;0.60;;;14.40;99.90;;;;;;4998311;28;20840;-86
2022/06/18 00:18:48;;;;;;;4.53;0.73;;;14.30;99.90;;;;;;4992609;28;20977;-84
2022/06/18 00:21:22;;;;;;;0.95;0.50;;;14.50;99.90;;;;;;5005007;28;20371;-86
2022/06/18 00:23:49;;;;;;;1.87;0.50;;;14.70;99.90;;;;;;5001926;28;20409;-84
2022/06/18 00:26:17;;;;;;;1.48;0.50;;;14.80;99.90;;;;;;5017334;28;20866;-85
2022/06/18 00:28:44;;;;;;;0.90;0.60;;;14.70;99.90;;;;;;5013683;28;20814;-85
2022/06/18 00:31:13;;;;;;;2.37;0.50;;;14.70;99.90;;;;;;5022456;28;20375;-86
2022/06/18 00:33:43;;;;;;;1.25;0.43;;;14.70;99.90;;;;;;5006841;28;20433;-85
2022/06/18 00:36:18;;;;;;;2.17;0.57;;;14.90;99.90;;;;;;5023750;28;20416;-85
2022/06/18 00:38:48;;;;;;;1.00;0.50;;;15.00;99.90;;;;;;4998574;28;20476;-85
2022/06/18 00:41:23;;;;;;;0.98;0.50;;;15.10;99.80;;;;;;5021722;28;20379;-84
2022/06/18 00:44:19;;;;;;;1.70;0.50;;;15.10;99.10;;;;;;5018461;28;20464;-85
2022/06/18 00:47:06;;;;;;;1.17;0.45;;;15.10;99.50;;;;;;4986369;28;20873;-86
2022/06/18 00:49:49;;;;;;;2.50;0.60;;;15.10;99.00;;;;;;4986305;28;20714;-85
2022/06/18 00:52:22;;;;;;;1.60;0.50;;;15.10;99.40;;;;;;5013998;28;20827;-86
2022/06/18 00:55:02;;;;;;;1.27;0.47;;;15.30;98.80;;;;;;5019994;28;20404;-87
2022/06/18 00:57:36;;;;;;;1.05;0.52;;;15.30;99.00;;;;;;5019039;28;20465;-85
2022/06/18 01:00:16;;;;;;;1.73;0.70;;;15.40;99.30;;;;;;5016090;28;20531;-86
2022/06/18 01:02:47;;;;;;;3.47;0.60;;;15.50;98.60;;;;;;5026262;28;20480;-86
2022/06/18 01:05:38;;;;;;;1.48;0.60;;;15.50;98.90;;;;;;5013556;28;20432;-85
2022/06/18 01:08:13;;;;;;;1.83;0.60;;;15.60;99.10;;;;;;4997833;28;20823;-85
2022/06/18 01:10:50;;;;;;;2.03;0.60;;;15.70;98.30;;;;;;5033475;28;20411;-83
2022/06/18 01:13:20;;;;;;;1.73;0.60;;;15.70;98.10;;;;;;5035961;28;20448;-82
2022/06/18 01:15:48;;;;;;;3.95;0.70;;;15.70;98.50;;;;;;5035115;28;20392;-84
2022/06/18 01:18:16;;;;;;;4.07;0.60;;;15.70;97.80;;;;;;5024942;28;20401;-87
2022/06/18 01:20:47;;;;;;;0.87;0.50;;;15.90;98.30;;;;;;5002420;28;20871;-84
2022/06/18 01:23:36;;;;;;;1.50;0.60;;;16.00;98.30;;;;;;5051191;28;20463;-84
2022/06/18 01:26:03;;;;;;;2.30;0.60;;;16.10;96.90;;;;;;5071535;28;20527;-85
2022/06/18 01:28:31;;;;;;;2.15;0.60;;;16.10;96.70;;;;;;5079710;28;20749;-85
2022/06/18 01:30:58;;;;;;;2.83;0.77;;;16.00;96.80;;;;;;5087143;28;20415;-86
2022/06/18 01:33:25;;;;;;;3.58;0.60;;;16.10;96.70;;;;;;5087407;28;20419;-87
2022/06/18 01:35:54;;;;;;;2.80;0.60;;;16.20;97.10;;;;;;5087094;28;20455;-88
2022/06/18 01:38:26;;;;;;;5.33;0.90;;;16.40;96.10;;;;;;5086938;28;20384;-87
2022/06/18 01:44:43;;;;;;;2.58;0.77;;;16.40;95.80;;;;;;5086928;28;20382;-86
2022/06/18 01:47:13;;;;;;;3.78;0.70;;;16.50;95.70;;;;;;5086816;28;20380;-86
2022/06/18 01:49:50;;;;;;;4.67;0.77;;;16.60;96.00;;;;;;5086924;28;20368;-88
2022/06/18 01:52:22;;;;;;;7.63;1.10;;;16.70;96.10;;;;;;5087174;28;20369;-87
2022/06/18 01:54:54;;;;;;;16.50;1.65;;;17.00;95.20;;;;;;5086778;28;20438;-87
2022/06/18 01:57:38;;;;;;;12.75;1.20;;;17.00;95.30;;;;;;5086920;28;20380;-87
2022/06/18 02:00:12;;;;;;;4.32;0.90;;;17.20;95.20;;;;;;5086924;28;20377;-87
2022/06/18 02:02:42;;;;;;;3.35;0.70;;;17.20;94.40;;;;;;5086834;28;20381;-86
2022/06/18 02:05:10;;;;;;;5.87;0.80;;;17.20;94.30;;;;;;5086867;28;20383;-85
2022/06/18 02:07:37;;;;;;;1.88;0.77;;;17.20;94.80;;;;;;5087114;28;20716;-86
2022/06/18 02:10:10;;;;;;;3.78;0.80;;;17.30;93.40;;;;;;5086715;28;20387;-85
2022/06/18 02:12:40;;;;;;;2.90;0.73;;;17.40;94.00;;;;;;5086827;28;20411;-87
2022/06/18 02:15:17;;;;;;;4.13;0.85;;;17.20;93.60;;;;;;5086761;28;20368;-88
2022/06/18 02:17:44;;;;;;;4.95;0.90;;;17.30;94.20;;;;;;5087652;28;20373;-88
2022/06/18 02:20:22;;;;;;;3.05;0.70;;;17.30;93.90;;;;;;5087562;28;20415;-87
2022/06/18 02:22:53;;;;;;;4.05;0.90;;;17.30;93.50;;;;;;5086992;28;20426;-90
2022/06/18 02:25:27;;;;;;;4.43;0.90;;;17.20;94.30;;;;;;5072243;28;20372;-85
2022/06/18 02:28:03;;;;;;;3.50;0.82;;;17.30;93.50;;;;;;5074016;28;20422;-86
2022/06/18 02:30:35;;;;;;;2.72;0.80;;;17.40;93.50;;;;;;5086366;28;20373;-86
2022/06/18 02:33:22;;;;;;;3.60;0.73;;;17.40;93.90;;;;;;5086639;28;20408;-85
2022/06/18 02:35:50;;;;;;;6.15;0.77;;;17.50;93.40;;;;;;5004396;28;20829;-85
2022/06/18 02:38:20;;;;;;;12.80;1.30;;;17.50;93.40;;;;;;5004115;28;20776;-86
2022/06/18 02:40:47;;;;;;;14.07;1.38;;;17.60;93.70;;;;;;5004299;28;20380;-87
2022/06/18 02:43:17;;;;;;;6.27;0.90;;;17.80;93.60;;;;;;5004507;28;20399;-86
2022/06/18 02:45:48;;;;;;;14.75;1.40;;;17.90;92.50;;;;;;4976901;28;20507;-86
2022/06/18 02:48:15;;;;;;;2.60;0.70;;;18.00;92.90;;;;;;4991380;28;20473;-87
2022/06/18 02:50:43;;;;;;;9.63;1.07;;;18.20;92.30;;;;;;5004557;28;20410;-84
2022/06/18 02:53:13;;;;;;;12.63;1.30;;;18.20;91.90;;;;;;4990894;28;20415;-90
2022/06/18 02:55:52;;;;;;;6.15;1.10;;;18.20;91.90;;;;;;5008452;28;20379;-85
2022/06/18 02:58:25;;;;;;;9.40;1.00;;;18.30;92.20;;;;;;5008114;28;20409;-88
2022/06/18 03:00:56;;;;;;;5.82;0.90;;;18.20;91.20;;;;;;5008221;28;20387;-84
2022/06/18 03:03:27;;;;;;;9.38;1.30;;;18.20;91.70;;;;;;5009587;28;20422;-87
2022/06/18 03:05:54;;;;;;;7.00;1.02;;;18.30;91.60;;;;;;5012698;28;20391;-87
2022/06/18 03:08:24;;;;;;;8.90;1.08;;;18.50;91.20;;;;;;5012250;28;20378;-85
2022/06/18 03:13:37;;;;;;;4.50;0.90;;;18.40;91.10;;;;;;5074052;28;20372;-85
2022/06/18 03:16:08;;;;;;;1.98;0.80;;;18.20;91.50;;;;;;5090069;28;20372;-86
2022/06/18 03:18:37;;;;;;;2.60;0.73;;;18.40;91.40;;;;;;5089521;28;20728;-87
2022/06/18 03:21:22;;;;;;;15.63;1.27;;;18.40;91.10;;;;;;5078605;28;20424;-86
2022/06/18 03:23:50;;;;;;;2.90;0.85;;;18.40;91.00;;;;;;5089383;28;20360;-86
2022/06/18 03:26:18;;;;;;;2.42;0.80;;;18.50;90.80;;;;;;5077693;28;20378;-87
2022/06/18 03:28:45;;;;;;;6.82;1.02;;;18.50;90.90;;;;;;5084192;28;20367;-87
2022/06/18 03:31:13;;;;;;;1.20;0.70;;;18.70;90.50;;;;;;5090095;28;20414;-85
2022/06/18 03:33:41;;;;;;;7.63;1.05;;;18.90;90.20;;;;;;5089607;28;20379;-85
2022/06/18 03:36:11;;;;;;;2.85;0.70;;;18.90;90.10;;;;;;5089650;28;20380;-87
2022/06/18 03:38:39;;;;;;;3.33;1.07;;;18.80;88.70;;;;;;5089379;28;20396;-88
2022/06/18 03:41:08;;;;;;;2.90;0.90;;;18.60;89.80;;;;;;5089399;28;20721;-90
2022/06/18 03:43:35;;;;;;;5.00;0.90;;;18.40;90.60;;;;;;5089483;28;20388;-88
2022/06/18 03:46:08;;;;;;;3.88;0.70;;;18.30;91.00;;;;;;5089044;28;20875;-86
2022/06/18 03:48:49;;;;;;;5.00;1.10;;;18.30;90.90;;;;;;5089321;28;20395;-87
2022/06/18 03:51:17;;;;;;;5.38;1.10;;;18.30;91.10;;;;;;5089145;28;20372;-86
2022/06/18 03:53:45;;;;;;;3.17;0.80;;;18.40;91.10;;;;;;5089292;28;20442;-85
2022/06/18 03:56:14;;;;;;;10.52;1.15;;;18.60;90.00;;;;;;5088902;28;20731;-85
2022/06/18 03:58:42;;;;;;;6.10;0.88;;;18.60;90.30;;;;;;5089584;28;20880;-88
2022/06/18 04:01:13;;;;;;;6.35;0.90;;;18.70;90.20;;;;;;5088776;28;20463;-87
2022/06/18 04:03:40;;;;;;;6.40;1.00;;;18.60;90.10;;;;;;5088366;28;20472;-81
2022/06/18 04:06:09;;;;;;;6.85;0.90;;;18.60;90.30;;;;;;5088586;28;20455;-84
2022/06/18 04:08:36;;;;;;;4.03;0.90;;;18.80;90.00;;;;;;5088873;28;20697;-84
2022/06/18 04:11:03;;;;;;;10.88;1.42;;;19.10;89.50;;;;;;5088495;28;20511;-85
2022/06/18 04:13:30;;;;;;;12.25;1.40;;;19.40;88.20;;;;;;5074201;28;20369;-86
2022/06/18 04:15:58;;;;;;;9.68;1.20;;;19.50;86.40;;;;;;5088434;28;20389;-88
2022/06/18 04:18:25;;;;;;;5.85;1.08;;;19.50;85.20;;;;;;5088195;28;20921;-88
2022/06/18 04:20:54;;;;;;;3.35;0.80;;;19.30;85.60;;;;;;5088617;28;20436;-83
2022/06/18 04:23:21;;;;;;;3.60;0.80;;;19.10;86.40;;;;;;5088203;28;20369;-86
2022/06/18 04:25:49;;;;;;;5.82;1.00;;;18.70;87.90;;;;;;5084090;28;20882;-85
2022/06/18 04:28:18;;;;;;;1.63;0.70;;;18.50;89.80;;;;;;5068401;28;20370;-85
2022/06/18 04:30:46;;;;;;;2.08;0.70;;;18.70;90.00;;;;;;5085420;28;20380;-87
2022/06/18 04:33:14;;;;;;;2.45;0.90;;;18.90;90.20;;;;;;5088477;28;20368;-87
2022/06/18 04:35:41;;;;;;;2.30;0.80;;;19.20;89.70;;;;;;5088302;28;20388;-86
2022/06/18 04:38:10;;;;;;;2.47;0.90;;;19.40;89.00;;;;;;5088171;28;20441;-86
2022/06/18 04:40:37;;;;;;;2.78;0.90;;;19.50;87.30;;;;;;5088585;28;20387;-86
2022/06/18 04:43:07;;;;;;;1.88;0.80;;;19.50;86.70;;;;;;5060971;28;20464;-87
2022/06/18 04:45:36;;;;;;;3.67;0.80;;;19.50;86.40;;;;;;5088013;28;20888;-86
2022/06/18 04:48:06;;;;;;;2.25;0.80;;;19.30;87.00;;;;;;5087945;28;20368;-89
2022/06/18 04:50:36;;;;;;;4.72;1.00;;;19.20;87.10;;;;;;5095251;28;20376;-86
2022/06/18 04:53:04;;;;;;;2.53;0.90;;;18.90;89.00;;;;;;5049550;28;20383;-86
2022/06/18 04:55:31;;;;;;;4.40;1.30;;;18.80;90.40;;;;;;5088092;28;20455;-86
2022/06/18 04:57:58;;;;;;;2.78;1.20;;;18.70;91.60;;;;;;5088075;28;20384;-86
2022/06/18 05:00:25;;;;;;;3.50;1.40;;;18.60;91.80;;;;;;5087941;28;20416;-86
2022/06/18 05:02:53;;;;;;;7.07;1.40;;;18.60;92.00;;;;;;5087794;28;20396;-87
2022/06/18 05:05:25;;;;;;;5.05;1.48;;;18.50;92.30;;;;;;5095397;28;20382;-87
2022/06/18 05:07:52;;;;;;;6.10;1.40;;;18.40;92.60;;;;;;5088150;28;20397;-88
2022/06/18 05:10:20;;;;;;;5.07;1.37;;;18.30;92.80;;;;;;5087951;28;20380;-88
2022/06/18 05:12:47;;;;;;;5.10;1.40;;;18.40;92.60;;;;;;5087881;28;20364;-89
2022/06/18 05:15:14;;;;;;;4.90;1.65;;;18.40;93.00;;;;;;5086820;28;20377;-87
2022/06/18 05:17:44;;;;;;;4.87;1.67;;;18.30;93.10;;;;;;5089780;28;20425;-87
2022/06/18 05:20:17;;;;;;;3.65;1.50;;;18.10;93.40;;;;;;5087797;28;20431;-88
2022/06/18 05:22:44;;;;;;;5.07;1.50;;;17.90;94.30;;;;;;5087718;28;20361;-86
2022/06/18 05:25:13;;;;;;;6.65;1.40;;;17.70;94.60;;;;;;5088295;28;21024;-85
2022/06/18 05:27:41;;;;;;;6.13;1.55;;;17.50;95.80;;;;;;5074019;28;20370;-86
2022/06/18 05:30:11;;;;;;;6.18;1.70;;;17.20;96.30;;;;;;5064602;28;20796;-86
2022/06/18 05:32:38;;;;;;;4.63;1.50;;;17.00;97.40;;;;;;5084371;28;20378;-85
2022/06/18 05:35:06;;;;;;;7.23;1.73;;;16.80;97.90;;;;;;5088323;28;20443;-86
2022/06/18 05:37:34;;;;;;;6.78;1.50;;;16.60;99.00;;;;;;5087971;28;20954;-86
2022/06/18 05:40:03;;;;;;;8.55;1.60;;;16.50;99.60;;;;;;5078977;28;20855;-89
2022/06/18 05:42:30;;;;;;;5.35;1.65;;;16.60;99.90;;;;;;5064858;28;20374;-87
2022/06/18 05:44:58;;;;;;;5.28;1.30;;;16.60;99.90;;;;;;5087326;28;20380;-87
2022/06/18 05:47:30;;;;;;;7.10;1.48;;;16.70;99.90;;;;;;5069265;28;20381;-86
2022/06/18 05:49:58;;;;;;;7.28;1.30;;;16.70;99.90;;;;;;5086884;28;20383;-87
2022/06/18 05:52:27;;;;;;;4.85;1.30;;;16.60;99.90;;;;;;5054344;28;20869;-87
2022/06/18 05:54:54;;;;;;;4.03;1.20;;;16.50;99.90;;;;;;5086650;28;20387;-85
2022/06/18 05:57:28;;;;;;;7.22;1.40;;;16.60;99.90;;;;;;5064817;28;20872;-85
2022/06/18 05:59:58;;;;;;;4.83;1.30;;;16.50;99.90;;;;;;5078617;28;20459;-86
2022/06/18 06:02:25;;;;;;;3.70;1.25;;;16.50;99.90;;;;;;5069516;28;20391;-84
2022/06/18 06:04:53;;;;;;;6.30;1.30;;;16.50;99.90;;;;;;5086840;28;20396;-85
2022/06/18 06:07:22;;;;;;;6.70;3.40;;;16.40;99.90;;;;;;5087046;28;20376;-84
2022/06/18 06:12:37;;;;;;;5.70;2.20;;;16.70;99.90;;;;;;5071305;28;20997;-83
2022/06/18 06:15:05;;;;;;;4.80;1.83;;;16.10;99.90;;;;;;5051247;28;20847;-86
2022/06/18 06:17:33;;;;;;;8.02;2.00;;;16.00;99.90;;;;;;5088505;28;20402;-86
2022/06/18 06:20:20;;;;;;;5.38;2.10;;;15.90;99.90;;;;;;5087906;28;20404;-86
2022/06/18 06:22:47;;;;;;;4.38;1.58;;;15.80;99.90;;;;;;5076005;28;20457;-85
2022/06/18 06:25:15;;;;;;;4.15;1.58;;;15.70;99.90;;;;;;5070810;28;20411;-87
2022/06/18 06:27:42;;;;;;;8.02;3.50;;;15.70;99.90;;;;;;5071439;28;20378;-86
2022/06/18 06:30:13;;;;;;;8.18;5.43;;;15.50;99.90;;;;;;5083397;28;20441;-85
2022/06/18 06:32:41;;;;;;;10.57;6.05;;;15.40;99.90;;;;;;5091362;28;20388;-84
2022/06/18 06:35:09;;;;;;;5.63;3.10;;;15.30;99.90;;;;;;5089508;28;20384;-87
2022/06/18 06:37:37;;;;;;;9.53;2.30;;;15.20;99.90;;;;;;5095194;28;20379;-85
2022/06/18 06:40:05;;;;;;;7.28;2.00;;;15.10;99.90;;;;;;5085229;28;20762;-91
2022/06/18 06:42:40;;;;;;;7.47;1.80;;;15.00;99.90;;;;;;5053989;28;20901;-88
2022/06/18 06:45:11;;;;;;;8.40;2.28;;;14.90;99.90;;;;;;5065602;28;20863;-87
2022/06/18 06:47:39;;;;;;;5.72;1.88;;;14.90;99.90;;;;;;5091166;28;20387;-86
2022/06/18 06:50:06;;;;;;;6.65;1.70;;;14.80;99.90;;;;;;5081470;28;20392;-86
2022/06/18 06:52:34;;;;;;;4.38;1.60;;;14.70;99.90;;;;;;5091439;28;20461;-87
2022/06/18 06:57:46;;;;;;;4.53;1.70;;;14.50;99.90;;;;;;5085718;28;20728;-88
2022/06/18 07:00:13;;;;;;;6.50;1.85;;;14.40;99.90;;;;;;5075402;28;20785;-86
2022/06/18 07:02:41;;;;;;;5.75;1.60;;;14.20;99.90;;;;;;5076736;28;20479;-87
2022/06/18 07:05:09;;;;;;;6.90;1.80;;;14.20;99.90;;;;;;5089465;28;20883;-85
2022/06/18 07:07:37;;;;;;;6.78;1.60;;;14.10;99.90;;;;;;5089845;28;20379;-84
2022/06/18 07:10:04;;;;;;;7.03;1.85;;;13.90;99.90;;;;;;5081573;28;20878;-86
2022/06/18 07:12:31;;;;;;;7.07;1.88;;;13.80;99.90;;;;;;5079712;28;20389;-88
2022/06/18 07:15:00;;;;;;;8.20;2.20;;;13.80;99.90;;;;;;5069109;28;20373;-85
2022/06/18 07:17:29;;;;;;;7.05;2.30;;;13.70;99.90;;;;;;5090133;28;20385;-86
2022/06/18 07:19:56;;;;;;;6.85;2.20;;;13.60;99.90;;;;;;5089470;28;20943;-86
2022/06/18 07:22:23;;;;;;;6.83;2.30;;;13.60;99.90;;;;;;5081715;28;20633;-88
2022/06/18 07:24:50;;;;;;;9.25;2.50;;;13.50;99.90;;;;;;5084109;28;20384;-92
2022/06/18 07:27:18;;;;;;;6.72;2.40;;;13.40;99.90;;;;;;5068445;28;20370;-90
2022/06/18 07:29:45;;;;;;;9.52;2.30;;;13.30;99.90;;;;;;5089316;28;20385;-87
2022/06/18 07:32:15;;;;;;;9.13;2.30;;;13.20;99.90;;;;;;5089512;28;21174;-88
2022/06/18 07:34:42;;;;;;;7.78;2.40;;;13.20;99.90;;;;;;5089107;28;20479;-88
2022/06/18 07:37:09;;;;;;;7.22;2.60;;;13.10;99.90;;;;;;5080722;28;20385;-87
2022/06/18 07:39:37;;;;;;;7.35;2.35;;;13.10;99.90;;;;;;5087561;28;20471;-85
2022/06/18 07:42:05;;;;;;;8.23;2.40;;;13.10;99.90;;;;;;5088096;28;20368;-85
2022/06/18 07:44:33;;;;;;;7.32;2.80;;;13.00;99.90;;;;;;5086186;28;20411;-88
2022/06/18 07:47:03;;;;;;;8.70;3.30;;;13.00;99.90;;;;;;5088429;28;20459;-85
2022/06/18 07:49:31;;;;;;;11.37;3.50;;;12.90;99.90;;;;;;5055494;28;20380;-87
2022/06/18 07:51:59;;;;;;;7.80;4.30;;;12.90;99.90;;;;;;5088206;28;20411;-85
2022/06/18 07:54:26;;;;;;;13.48;5.80;;;12.90;99.90;;;;;;5072930;28;20385;-84
2022/06/18 07:56:53;;;;;;;12.70;6.53;;;12.80;99.90;;;;;;5077458;28;20415;-88
2022/06/18 07:59:20;;;;;;;23.07;11.03;;;12.80;99.90;;;;;;5078530;28;20948;-89
2022/06/18 08:01:48;;;;;;;21.08;12.25;;;12.80;99.90;;;;;;5066470;28;20491;-89
2022/06/18 08:04:15;;;;;;;24.77;15.90;;;12.80;99.90;;;;;;5081552;28;20459;-87
2022/06/18 08:06:42;;;;;;;18.85;10.00;;;12.80;99.90;;;;;;5087937;28;20369;-88
2022/06/18 08:09:09;;;;;;;12.35;5.97;;;12.70;99.90;;;;;;5087971;28;20403;-89
2022/06/18 08:11:38;;;;;;;9.93;3.83;;;12.70;99.90;;;;;;5081364;28;20384;-87
2022/06/18 08:14:05;;;;;;;10.43;3.30;;;12.80;99.90;;;;;;5088169;28;20381;-85
2022/06/18 08:16:33;;;;;;;10.85;3.10;;;12.70;99.90;;;;;;5084697;28;20464;-86
2022/06/18 08:19:00;;;;;;;6.95;2.88;;;12.70;99.90;;;;;;5087537;28;20401;-84
2022/06/18 08:21:41;;;;;;;8.00;2.70;;;12.70;99.90;;;;;;5065750;28;20383;-83
2022/06/18 08:24:15;;;;;;;6.43;2.55;;;12.70;99.90;;;;;;5074068;28;20852;-85
2022/06/18 08:26:44;;;;;;;10.97;3.30;;;12.70;99.90;;;;;;5076424;28;20404;-85
2022/06/18 08:29:14;;;;;;;16.13;3.87;;;12.80;99.90;;;;;;5085276;28;20356;-87
2022/06/18 08:31:41;;;;;;;13.27;4.07;;;12.80;99.90;;;;;;5087720;28;20445;-88
2022/06/18 08:34:09;;;;;;;14.60;3.70;;;12.80;99.90;;;;;;5072537;28;20386;-88
2022/06/18 08:36:37;;;;;;;19.13;4.10;;;12.70;99.90;;;;;;5080391;28;20425;-83
2022/06/18 08:39:05;;;;;;;13.63;3.90;;;12.50;99.90;;;;;;5059979;28;20413;-85
2022/06/18 08:42:16;;;;;;;14.45;5.35;;;12.40;99.90;;;;;;5086916;28;20490;-84
2022/06/18 08:44:58;;;;;;;12.13;4.07;;;12.20;99.90;;;;;;5087157;28;20383;-84
2022/06/18 08:47:54;;;;;;;15.50;5.00;;;12.00;99.90;;;;;;5072318;28;20423;-84
2022/06/18 08:50:48;;;;;;;26.10;6.18;;;11.90;99.90;;;;;;5067133;28;20443;-85
2022/06/18 08:53:43;;;;;;;18.65;5.60;;;11.80;99.90;;;;;;5070632;28;20736;-83
2022/06/18 08:56:17;;;;;;;17.08;5.50;;;11.80;99.90;;;;;;5078596;28;20399;-87
2022/06/18 08:59:08;;;;;;;13.00;5.33;;;11.80;99.90;;;;;;5076171;28;20452;-86
2022/06/18 09:01:49;;;;;;;9.23;4.90;;;11.80;99.90;;;;;;5084953;28;20448;-86
2022/06/18 09:04:24;;;;;;;13.20;5.35;;;11.70;99.90;;;;;;5060168;28;20851;-85
2022/06/18 09:07:09;;;;;;;11.50;5.30;;;11.70;99.90;;;;;;5087516;28;20365;-85
2022/06/18 09:09:52;;;;;;;29.70;14.10;;;11.80;99.90;;;;;;5074285;28;20408;-84
2022/06/18 09:12:32;;;;;;;25.70;11.15;;;11.70;99.90;;;;;;5054043;28;20921;-84
2022/06/18 09:15:21;;;;;;;22.58;10.55;;;11.70;99.90;;;;;;5067468;28;20409;-87
2022/06/18 09:18:30;;;;;;;30.07;11.67;;;11.70;99.90;;;;;;5067337;28;20410;-86
2022/06/18 09:21:03;;;;;;;44.20;25.30;;;11.60;99.90;;;;;;5058383;28;20976;-88
2022/06/18 09:23:43;;;;;;;37.45;20.63;;;11.50;99.90;;;;;;5066085;28;20393;-85
2022/06/18 09:26:17;;;;;;;43.75;21.08;;;11.50;99.90;;;;;;5072882;28;20374;-81
2022/06/18 09:29:01;;;;;;;30.98;15.95;;;11.50;99.90;;;;;;5066650;28;20393;-85
2022/06/18 09:31:46;;;;;;;26.13;12.48;;;11.40;99.90;;;;;;5067430;28;20762;-87
2022/06/18 09:34:30;;;;;;;24.50;10.27;;;11.40;99.90;;;;;;5064173;28;20485;-85
2022/06/18 09:37:02;;;;;;;23.45;9.70;;;11.40;99.90;;;;;;5058850;28;20361;-86
2022/06/18 09:39:46;;;;;;;18.17;7.25;;;11.40;99.90;;;;;;5066980;28;20419;-86
2022/06/18 09:42:37;;;;;;;18.05;6.55;;;11.60;99.90;;;;;;5066464;28;20778;-86
2022/06/18 09:45:14;;;;;;;14.25;4.70;;;11.80;99.90;;;;;;5005027;28;20484;-87
2022/06/18 09:47:48;;;;;;;16.77;4.20;;;12.00;99.90;;;;;;5004074;28;20443;-85
2022/06/18 09:50:19;;;;;;;12.25;4.30;;;12.10;99.90;;;;;;5004936;28;20469;-86
2022/06/18 09:52:51;;;;;;;13.93;4.33;;;12.30;99.90;;;;;;5004827;28;20459;-86
2022/06/18 09:55:43;;;;;;;15.95;4.13;;;12.40;99.90;;;;;;5004685;28;20383;-87
2022/06/18 09:58:31;;;;;;;11.07;3.97;;;12.50;99.90;;;;;;5004328;28;20371;-84
2022/06/18 10:01:00;;;;;;;9.60;4.17;;;12.50;99.90;;;;;;5004665;28;20395;-87
2022/06/18 10:06:55;;;;;;;9.30;4.28;;;12.50;99.90;;;;;;5004639;28;20382;-87
2022/06/18 10:09:51;;;;;;;13.70;4.32;;;12.50;99.90;;;;;;5004556;28;20779;-86
2022/06/18 10:12:25;;;;;;;13.30;5.10;;;12.40;99.90;;;;;;4988695;28;20383;-84
2022/06/18 10:15:06;;;;;;;13.75;4.85;;;12.40;99.90;;;;;;5004542;28;20464;-85
2022/06/18 10:17:54;;;;;;;11.93;4.22;;;12.30;99.90;;;;;;5004594;28;20859;-83
2022/06/18 10:20:39;;;;;;;9.23;3.90;;;12.20;99.90;;;;;;5004513;28;20447;-89
2022/06/18 10:23:18;;;;;;;6.82;3.80;;;12.20;99.90;;;;;;5053342;28;20387;-85
2022/06/18 10:26:05;;;;;;;7.07;3.80;;;12.20;99.90;;;;;;5053785;28;20451;-82
2022/06/18 10:28:53;;;;;;;7.68;3.80;;;12.10;99.90;;;;;;5066597;28;20885;-86
2022/06/18 10:31:36;;;;;;;7.20;3.65;;;12.00;99.90;;;;;;5053336;28;20374;-83
2022/06/18 10:34:22;;;;;;;8.93;3.63;;;11.80;99.90;;;;;;5066522;28;20738;-88
2022/06/18 10:37:20;;;;;;;7.43;3.60;;;11.70;99.90;;;;;;5066915;28;20415;-84
2022/06/18 10:40:26;;;;;;;6.60;3.60;;;11.60;99.90;;;;;;5053851;28;20735;-86
2022/06/18 10:43:02;;;;;;;6.03;3.20;;;11.50;99.90;;;;;;4990006;28;20384;-86
2022/06/18 10:45:55;;;;;;;6.80;3.33;;;11.50;99.90;;;;;;4995459;28;20405;-87
2022/06/18 10:48:28;;;;;;;6.18;3.10;;;11.40;99.90;;;;;;4992559;28;20937;-84
2022/06/18 10:50:57;;;;;;;6.60;3.53;;;11.30;99.90;;;;;;5004635;28;20395;-84
2022/06/18 10:53:29;;;;;;;10.15;3.65;;;11.30;99.90;;;;;;5004499;28;20437;-86
2022/06/18 10:56:16;;;;;;;11.60;3.67;;;11.20;99.90;;;;;;5004759;28;20390;-85
2022/06/18 10:58:54;;;;;;;13.50;3.70;;;11.10;99.90;;;;;;5002958;28;20430;-86
2022/06/18 11:01:31;;;;;;;13.85;4.55;;;11.10;99.90;;;;;;5004350;28;20453;-87
2022/06/18 11:04:04;;;;;;;12.05;3.90;;;11.00;99.90;;;;;;5004833;28;20403;-86
2022/06/18 11:06:32;;;;;;;13.40;4.40;;;10.90;99.90;;;;;;5004471;28;20450;-85
2022/06/18 11:09:03;;;;;;;10.77;4.30;;;10.90;99.90;;;;;;5004679;28;20442;-86
2022/06/18 11:11:36;;;;;;;11.35;4.10;;;10.90;99.90;;;;;;5004363;28;20388;-85
2022/06/18 11:14:33;;;;;;;12.77;4.43;;;10.80;99.90;;;;;;5005749;28;20382;-88
2022/06/18 11:17:00;;;;;;;11.63;4.95;;;10.80;99.90;;;;;;5006848;28;20418;-86
2022/06/18 11:19:34;;;;;;;10.85;5.45;;;10.80;99.90;;;;;;5024991;28;20565;-86
2022/06/18 11:22:24;;;;;;;9.23;5.10;;;10.90;99.90;;;;;;5065013;28;20378;-87
2022/06/18 11:24:57;;;;;;;10.32;4.10;;;10.90;99.90;;;;;;5069515;28;20458;-84
2022/06/18 11:27:34;;;;;;;10.88;4.38;;;11.00;99.90;;;;;;5053601;28;20388;-86
2022/06/18 11:30:18;;;;;;;12.15;4.20;;;11.10;99.90;;;;;;5069588;28;20366;-85
2022/06/18 11:32:49;;;;;;;7.72;4.13;;;11.20;99.90;;;;;;5068843;28;20769;-86
2022/06/18 11:35:20;;;;;;;7.07;3.83;;;11.30;99.90;;;;;;5069574;28;20404;-86
2022/06/18 11:38:06;;;;;;;6.10;3.38;;;11.30;99.90;;;;;;5069078;28;20370;-86
2022/06/18 11:40:33;;;;;;;6.95;3.50;;;11.40;99.90;;;;;;5063081;28;20430;-86
2022/06/18 11:43:16;;;;;;;6.40;3.10;;;11.40;99.90;;;;;;5068690;28;20381;-86
2022/06/18 11:46:00;;;;;;;6.93;3.35;;;11.40;99.90;;;;;;5069212;28;20378;-88
2022/06/18 11:48:50;;;;;;;11.23;5.10;;;11.40;99.90;;;;;;5057362;28;20873;-87
2022/06/18 11:51:43;;;;;;;19.65;6.07;;;11.40;99.90;;;;;;5068835;28;20370;-86
2022/06/18 11:54:28;;;;;;;17.55;5.28;;;11.40;99.90;;;;;;5068278;28;20425;-86
2022/06/18 11:57:20;;;;;;;15.63;4.20;;;11.40;99.90;;;;;;5056715;28;20373;-87
2022/06/18 11:59:53;;;;;;;12.73;3.92;;;11.40;99.90;;;;;;5068434;28;20582;-86
2022/06/18 12:02:25;;;;;;;9.82;3.70;;;11.40;99.90;;;;;;5068765;28;20394;-86
2022/06/18 12:05:41;;;;;;;12.03;3.67;;;11.40;99.90;;;;;;5067898;28;20488;-85
2022/06/18 12:08:08;;;;;;;10.45;3.20;;;11.50;99.90;;;;;;4967271;28;20386;-85
2022/06/18 12:10:41;;;;;;;5.35;2.90;;;11.50;99.90;;;;;;4967963;28;20827;-86
2022/06/18 12:13:23;;;;;;;7.18;2.80;;;11.50;99.90;;;;;;4966753;28;20777;-85
2022/06/18 12:16:05;;;;;;;6.68;3.25;;;11.60;99.90;;;;;;4967763;28;20386;-85
2022/06/18 12:18:35;;;;;;;5.40;2.60;;;11.60;99.90;;;;;;4967403;28;20402;-86
2022/06/18 12:21:32;;;;;;;5.45;2.63;;;11.60;99.90;;;;;;4959983;28;20398;-84
2022/06/18 12:24:02;;;;;;;6.07;2.80;;;11.60;99.90;;;;;;4928664;29;20386;-84
2022/06/18 12:27:06;;;;;;;4.68;2.80;;;11.60;99.90;;;;;;4928969;29;20400;-87
2022/06/18 12:30:00;;;;;;;5.32;2.60;;;11.60;99.90;;;;;;4929042;29;20397;-86
2022/06/18 12:32:47;;;;;;;5.60;3.60;;;11.50;99.90;;;;;;4899805;29;20401;-84
2022/06/18 12:35:20;;;;;;;5.90;3.47;;;11.50;99.90;;;;;;4910037;29;20466;-87
2022/06/18 12:38:06;;;;;;;5.78;3.25;;;11.40;99.90;;;;;;4893417;29;20414;-87
2022/06/18 12:40:48;;;;;;;8.52;3.95;;;11.40;99.90;;;;;;4910337;29;20465;-87
2022/06/18 12:43:35;;;;;;;5.30;3.13;;;11.30;99.90;;;;;;4909960;29;20447;-83
2022/06/18 12:46:07;;;;;;;6.15;2.78;;;11.30;99.90;;;;;;4947677;29;20388;-85
2022/06/18 12:48:52;;;;;;;4.80;2.72;;;11.30;99.90;;;;;;4938737;29;20392;-84
2022/06/18 12:51:44;;;;;;;4.57;2.92;;;11.30;99.90;;;;;;4947642;28;20482;-85
2022/06/18 12:54:20;;;;;;;4.82;3.20;;;11.30;99.90;;;;;;4946858;29;20402;-84
2022/06/18 12:56:47;;;;;;;5.57;3.10;;;11.40;99.90;;;;;;4931634;29;20388;-87
2022/06/18 12:59:22;;;;;;;6.73;3.03;;;11.40;99.90;;;;;;4946082;28;20525;-88
2022/06/18 13:02:15;;;;;;;6.72;3.33;;;11.40;99.90;;;;;;4966773;28;20403;-88
2022/06/18 13:05:11;;;;;;;6.93;3.33;;;11.40;99.90;;;;;;4966655;28;20451;-84
2022/06/18 13:07:58;;;;;;;6.60;4.60;;;11.40;99.90;;;;;;4909123;29;20402;-86
2022/06/18 13:10:41;;;;;;;6.97;4.32;;;11.50;99.90;;;;;;4985240;28;20869;-83
2022/06/18 13:13:11;;;;;;;7.40;4.10;;;11.50;99.90;;;;;;4972599;28;20479;-86
2022/06/18 13:15:55;;;;;;;6.63;3.10;;;11.50;99.90;;;;;;4980929;28;20389;-87
2022/06/18 13:18:26;;;;;;;5.18;2.70;;;11.50;99.90;;;;;;4988021;28;20427;-87
2022/06/18 13:21:03;;;;;;;4.65;2.55;;;11.60;99.90;;;;;;4986115;28;20420;-87
2022/06/18 13:29:20;;;;;;;5.75;3.35;;;11.60;99.90;;;;;;4972038;28;20384;-86
2022/06/18 13:31:51;;;;;;;3.80;2.50;;;11.60;99.90;;;;;;4985388;28;20377;-84
2022/06/18 13:34:30;;;;;;;8.20;3.72;;;11.50;99.90;;;;;;4985668;28;20435;-87
2022/06/18 13:37:18;;;;;;;5.72;3.28;;;11.50;99.90;;;;;;4984687;28;20432;-88
2022/06/18 13:40:10;;;;;;;5.93;2.60;;;11.40;99.90;;;;;;4985795;28;20531;-84
2022/06/18 13:42:42;;;;;;;4.03;2.47;;;11.40;99.90;;;;;;4985211;28;20397;-84